createdAt,value
2022-12-31T00:01:09.597Z,5.57
2022-12-31T00:03:47.365Z,5.67
2022-12-31T00:06:23.793Z,5.75
2022-12-31T00:09:11.133Z,5.83
2022-12-31T00:11:43.166Z,5.93
2022-12-31T00:14:15.215Z,6.02
2022-12-31T00:16:46.117Z,6.10
2022-12-31T00:19:17.409Z,6.19
2022-12-31T00:21:45.936Z,6.26
2022-12-31T00:24:17.570Z,6.32
2022-12-31T00:26:48.869Z,6.36
2022-12-31T00:29:17.426Z,6.40
2022-12-31T00:31:46.055Z,6.43
2022-12-31T00:34:22.744Z,6.47
2022-12-31T00:36:55.691Z,6.49
2022-12-31T00:39:27.336Z,6.50
2022-12-31T00:41:56.182Z,6.52
2022-12-31T00:44:28.147Z,6.54
2022-12-31T00:46:57.634Z,6.55
2022-12-31T00:49:26.284Z,6.55
2022-12-31T00:52:04.346Z,6.55
2022-12-31T00:54:33.577Z,6.56
2022-12-31T00:57:02.231Z,6.55
2022-12-31T00:59:30.967Z,6.53
2022-12-31T01:02:00.021Z,6.53
2022-12-31T01:04:36.366Z,6.50
2022-12-31T01:07:05.259Z,6.47
2022-12-31T01:09:35.680Z,6.44
2022-12-31T01:12:05.369Z,6.41
2022-12-31T01:14:34.023Z,6.38
2022-12-31T01:17:02.978Z,6.37
2022-12-31T01:19:31.850Z,6.37
2022-12-31T01:22:00.840Z,6.35
2022-12-31T01:24:33.579Z,6.35
2022-12-31T01:27:02.770Z,6.35
2022-12-31T01:29:34.532Z,6.35
2022-12-31T01:32:03.213Z,6.36
2022-12-31T01:34:35.035Z,6.36
2022-12-31T01:37:03.701Z,6.38
2022-12-31T01:39:40.013Z,6.39
2022-12-31T01:42:11.102Z,6.39
2022-12-31T01:44:51.486Z,6.40
2022-12-31T01:47:27.767Z,6.40
2022-12-31T01:50:02.328Z,6.40
2022-12-31T01:52:42.260Z,6.40
2022-12-31T01:55:18.568Z,6.39
2022-12-31T01:57:49.994Z,6.38
2022-12-31T02:00:19.495Z,6.37
2022-12-31T02:02:48.532Z,6.36
2022-12-31T02:05:33.129Z,6.35
2022-12-31T02:08:03.366Z,6.34
2022-12-31T02:10:36.114Z,6.34
2022-12-31T02:13:05.154Z,6.34
2022-12-31T02:15:45.605Z,6.33
2022-12-31T02:18:26.696Z,6.34
2022-12-31T02:21:19.654Z,6.33
2022-12-31T02:24:21.525Z,6.33
2022-12-31T02:27:01.637Z,6.34
2022-12-31T02:29:59.568Z,6.35
2022-12-31T02:32:48.584Z,6.35
2022-12-31T02:35:41.301Z,6.38
2022-12-31T02:38:16.624Z,6.39
2022-12-31T02:40:45.891Z,6.39
2022-12-31T02:43:17.321Z,6.39
2022-12-31T02:45:54.391Z,6.39
2022-12-31T02:48:41.860Z,6.37
2022-12-31T02:51:36.478Z,6.35
2022-12-31T02:54:32.709Z,6.33
2022-12-31T02:57:09.511Z,6.31
2022-12-31T03:00:08.872Z,6.29
2022-12-31T03:02:48.797Z,6.28
2022-12-31T03:05:32.800Z,6.28
2022-12-31T03:08:04.655Z,6.28
2022-12-31T03:10:40.489Z,6.28
2022-12-31T03:13:09.402Z,6.29
2022-12-31T03:15:40.361Z,6.29
2022-12-31T03:18:14.935Z,6.29
2022-12-31T03:21:12.760Z,6.30
2022-12-31T03:23:49.611Z,6.31
2022-12-31T03:26:18.713Z,6.31
2022-12-31T03:28:47.891Z,6.32
2022-12-31T03:31:19.544Z,6.33
2022-12-31T03:33:58.454Z,6.34
2022-12-31T03:36:34.681Z,6.34
2022-12-31T03:39:18.591Z,6.34
2022-12-31T03:42:07.634Z,6.35
2022-12-31T03:44:38.884Z,6.37
2022-12-31T03:47:21.475Z,6.36
2022-12-31T03:49:52.965Z,6.36
2022-12-31T03:52:21.817Z,6.33
2022-12-31T03:54:53.501Z,6.32
2022-12-31T03:57:25.126Z,6.31
2022-12-31T03:59:54.018Z,6.31
2022-12-31T04:02:28.255Z,6.33
2022-12-31T04:05:00.902Z,6.34
2022-12-31T04:07:32.163Z,6.35
2022-12-31T04:10:21.571Z,6.37
2022-12-31T04:12:53.481Z,6.39
2022-12-31T04:15:22.687Z,6.41
2022-12-31T04:17:51.367Z,6.44
2022-12-31T04:20:29.500Z,6.48
2022-12-31T04:22:58.185Z,6.51
2022-12-31T04:25:29.540Z,6.53
2022-12-31T04:28:00.783Z,6.54
2022-12-31T04:30:42.981Z,6.56
2022-12-31T04:33:11.670Z,6.56
2022-12-31T04:35:40.627Z,6.56
2022-12-31T04:38:09.446Z,6.58
2022-12-31T04:41:18.750Z,6.59
2022-12-31T04:43:48.874Z,6.60
2022-12-31T04:46:19.820Z,6.62
2022-12-31T04:48:48.817Z,6.64
2022-12-31T04:51:17.945Z,6.65
2022-12-31T04:53:47.540Z,6.66
2022-12-31T04:56:17.208Z,6.67
2022-12-31T04:59:07.036Z,6.67
2022-12-31T05:01:36.692Z,6.66
2022-12-31T05:04:06.016Z,6.65
2022-12-31T05:06:34.946Z,6.64
2022-12-31T05:09:03.661Z,6.63
2022-12-31T05:11:32.632Z,6.62
2022-12-31T05:14:02.516Z,6.61
2022-12-31T05:16:31.346Z,6.61
2022-12-31T05:19:00.296Z,6.60
2022-12-31T05:21:28.944Z,6.59
2022-12-31T05:23:57.925Z,6.57
2022-12-31T05:26:26.792Z,6.57
2022-12-31T05:28:59.629Z,6.55
2022-12-31T05:31:30.863Z,6.55
2022-12-31T05:34:02.050Z,6.57
2022-12-31T05:36:32.914Z,6.59
2022-12-31T05:39:04.896Z,6.60
2022-12-31T05:41:36.051Z,6.62
2022-12-31T05:44:07.160Z,6.64
2022-12-31T05:46:38.129Z,6.66
2022-12-31T05:49:22.171Z,6.67
2022-12-31T05:51:51.895Z,6.69
2022-12-31T05:54:23.180Z,6.70
2022-12-31T05:56:52.242Z,6.73
2022-12-31T05:59:21.244Z,6.76
2022-12-31T06:01:50.478Z,6.77
2022-12-31T06:04:19.223Z,6.78
2022-12-31T06:06:51.378Z,6.80
2022-12-31T06:09:22.635Z,6.82
2022-12-31T06:11:51.585Z,6.84
2022-12-31T06:14:21.505Z,6.85
2022-12-31T06:16:53.318Z,6.87
2022-12-31T06:19:25.231Z,6.87
2022-12-31T06:22:03.399Z,6.87
2022-12-31T06:24:52.263Z,6.87
2022-12-31T06:27:24.044Z,6.87
2022-12-31T06:29:55.816Z,6.86
2022-12-31T06:32:27.137Z,6.85
2022-12-31T06:35:12.649Z,6.83
2022-12-31T06:37:44.251Z,6.82
2022-12-31T06:40:29.602Z,6.80
2022-12-31T06:43:01.731Z,6.77
2022-12-31T06:45:30.292Z,6.76
2022-12-31T06:47:59.185Z,6.73
2022-12-31T06:50:28.129Z,6.71
2022-12-31T06:52:59.817Z,6.68
2022-12-31T06:55:29.974Z,6.65
2022-12-31T06:58:00.016Z,6.62
2022-12-31T07:00:30.171Z,6.61
2022-12-31T07:03:17.731Z,6.59
2022-12-31T07:05:57.688Z,6.59
2022-12-31T07:08:45.147Z,6.60
2022-12-31T07:11:23.349Z,6.61
2022-12-31T07:14:18.310Z,6.63
2022-12-31T07:17:21.835Z,6.65
2022-12-31T07:20:05.128Z,6.69
2022-12-31T07:22:35.412Z,6.73
2022-12-31T07:25:18.987Z,6.79
2022-12-31T07:28:04.436Z,6.85
2022-12-31T07:30:44.635Z,6.91
2022-12-31T07:33:26.808Z,6.95
2022-12-31T07:36:09.094Z,6.98
2022-12-31T07:38:50.039Z,7.01
2022-12-31T07:41:29.770Z,7.04
2022-12-31T07:44:07.778Z,7.06
2022-12-31T07:46:45.651Z,7.08
2022-12-31T07:49:15.415Z,7.11
2022-12-31T07:51:54.488Z,7.18
2022-12-31T07:54:23.474Z,7.21
2022-12-31T07:56:52.616Z,7.22
2022-12-31T07:59:36.618Z,7.24
2022-12-31T08:02:13.867Z,7.27
2022-12-31T08:04:59.069Z,7.31
2022-12-31T08:07:36.503Z,7.35
2022-12-31T08:10:17.747Z,7.37
2022-12-31T08:12:52.334Z,7.40
2022-12-31T08:15:26.873Z,7.43
2022-12-31T08:18:01.245Z,7.46
2022-12-31T08:20:32.616Z,7.48
2022-12-31T08:23:17.420Z,7.53
2022-12-31T08:25:56.406Z,7.56
2022-12-31T08:28:34.623Z,7.59
2022-12-31T08:31:10.716Z,7.65
2022-12-31T08:34:08.218Z,7.71
2022-12-31T08:36:47.755Z,7.78
2022-12-31T08:39:41.166Z,7.87
2022-12-31T08:42:21.851Z,7.97
2022-12-31T08:44:59.190Z,8.05
2022-12-31T08:47:38.466Z,8.13
2022-12-31T08:50:14.571Z,8.21
2022-12-31T08:52:44.571Z,8.26
2022-12-31T08:55:18.119Z,8.30
2022-12-31T08:57:55.291Z,8.33
2022-12-31T09:00:26.150Z,8.35
2022-12-31T09:03:17.211Z,8.41
2022-12-31T09:06:02.848Z,8.47
2022-12-31T09:09:03.885Z,8.49
2022-12-31T09:11:43.006Z,8.49
2022-12-31T09:14:27.637Z,8.49
2022-12-31T09:17:04.475Z,8.51
2022-12-31T09:19:40.963Z,8.52
2022-12-31T09:22:17.687Z,8.53
2022-12-31T09:24:47.740Z,8.54
2022-12-31T09:27:28.004Z,8.56
2022-12-31T09:30:03.270Z,8.59
2022-12-31T09:32:51.901Z,8.62
2022-12-31T09:35:35.029Z,8.66
2022-12-31T09:38:11.817Z,8.69
2022-12-31T09:40:50.585Z,8.71
2022-12-31T09:44:01.402Z,8.74
2022-12-31T09:47:07.826Z,8.76
2022-12-31T09:50:06.793Z,8.77
2022-12-31T09:52:50.831Z,8.79
2022-12-31T09:55:35.455Z,8.82
2022-12-31T09:58:32.314Z,8.84
2022-12-31T10:01:10.634Z,8.86
2022-12-31T10:04:02.574Z,8.90
2022-12-31T10:06:39.381Z,8.99
2022-12-31T10:09:42.362Z,9.15
2022-12-31T10:12:37.264Z,9.38
2022-12-31T10:15:35.483Z,9.73
2022-12-31T10:18:11.684Z,10.11
2022-12-31T10:21:00.793Z,10.36
2022-12-31T10:23:48.340Z,10.51
2022-12-31T10:26:36.404Z,10.66
2022-12-31T10:29:18.663Z,10.83
2022-12-31T10:32:26.257Z,10.98
2022-12-31T10:35:14.903Z,11.16
2022-12-31T10:38:11.937Z,11.29
2022-12-31T10:41:14.182Z,11.40
2022-12-31T10:44:12.372Z,11.46
2022-12-31T10:47:22.063Z,11.49
2022-12-31T10:50:29.149Z,11.50
2022-12-31T10:53:30.110Z,11.48
2022-12-31T10:56:37.650Z,11.45
2022-12-31T10:59:44.615Z,11.43
2022-12-31T11:02:36.355Z,11.45
2022-12-31T11:05:41.324Z,11.46
2022-12-31T11:08:33.456Z,11.46
2022-12-31T11:11:19.885Z,11.47
2022-12-31T11:14:24.410Z,11.49
2022-12-31T11:17:16.907Z,11.52
2022-12-31T11:19:58.907Z,11.56
2022-12-31T11:22:43.450Z,11.60
2022-12-31T11:25:33.131Z,11.64
2022-12-31T11:28:34.910Z,11.68
2022-12-31T11:31:46.672Z,11.70
2022-12-31T11:34:51.626Z,11.70
2022-12-31T11:37:32.399Z,11.70
2022-12-31T11:40:20.924Z,11.68
2022-12-31T11:42:58.345Z,11.68
2022-12-31T11:45:50.251Z,11.67
2022-12-31T11:48:30.698Z,11.63
2022-12-31T11:51:13.755Z,11.57
2022-12-31T11:54:06.037Z,11.51
2022-12-31T11:56:37.481Z,11.42
2022-12-31T11:59:18.677Z,11.35
2022-12-31T12:01:55.114Z,11.32
2022-12-31T12:04:24.272Z,11.29
2022-12-31T12:06:53.206Z,11.26
2022-12-31T12:09:28.461Z,11.24
2022-12-31T12:12:03.926Z,11.21
2022-12-31T12:14:35.911Z,11.19
2022-12-31T12:17:06.970Z,11.18
2022-12-31T12:19:42.496Z,11.17
2022-12-31T12:22:21.311Z,11.18
2022-12-31T12:24:54.744Z,11.18
2022-12-31T12:27:27.560Z,11.18
2022-12-31T12:29:56.320Z,11.18
2022-12-31T12:32:28.016Z,11.18
2022-12-31T12:34:59.766Z,11.20
2022-12-31T12:37:32.498Z,11.23
2022-12-31T12:40:03.581Z,11.24
2022-12-31T12:42:32.578Z,11.25
2022-12-31T12:45:07.075Z,11.26
2022-12-31T12:47:36.219Z,11.27
2022-12-31T12:50:13.768Z,11.28
2022-12-31T12:53:02.502Z,11.27
2022-12-31T12:55:40.871Z,11.27
2022-12-31T12:58:21.278Z,11.25
2022-12-31T13:00:59.945Z,11.24
2022-12-31T13:04:33.694Z,11.23
2022-12-31T13:07:23.014Z,11.24
2022-12-31T13:10:22.025Z,11.25
2022-12-31T13:16:11.372Z,11.24
2022-12-31T13:18:54.944Z,11.23
2022-12-31T13:21:37.065Z,11.20
2022-12-31T13:24:18.235Z,11.19
2022-12-31T13:26:54.395Z,11.16
2022-12-31T13:29:28.141Z,11.15
2022-12-31T13:32:00.245Z,11.12
2022-12-31T13:34:30.241Z,11.09
2022-12-31T13:37:27.549Z,11.04
2022-12-31T13:40:17.951Z,11.00
2022-12-31T13:42:54.489Z,10.98
2022-12-31T13:45:28.383Z,10.94
2022-12-31T13:48:06.617Z,10.90
2022-12-31T13:50:49.293Z,10.86
2022-12-31T13:53:26.748Z,10.83
2022-12-31T13:56:02.996Z,10.80
2022-12-31T13:58:42.520Z,10.79
2022-12-31T14:01:33.625Z,10.76
2022-12-31T14:04:07.853Z,10.76
2022-12-31T14:06:45.568Z,10.76
2022-12-31T14:09:20.247Z,10.77
2022-12-31T14:12:09.560Z,10.79
2022-12-31T14:14:48.658Z,10.81
2022-12-31T14:17:46.056Z,10.83
2022-12-31T14:20:24.713Z,10.85
2022-12-31T14:23:05.795Z,10.86
2022-12-31T14:25:40.691Z,10.85
2022-12-31T14:28:19.418Z,10.86
2022-12-31T14:30:56.344Z,10.87
2022-12-31T14:33:49.389Z,10.89
2022-12-31T14:36:32.533Z,10.91
2022-12-31T14:39:29.411Z,10.93
2022-12-31T14:42:22.351Z,10.95
2022-12-31T14:45:23.320Z,10.97
2022-12-31T14:48:01.784Z,10.98
2022-12-31T14:50:51.299Z,10.98
2022-12-31T14:53:50.858Z,10.96
2022-12-31T14:56:42.236Z,10.95
2022-12-31T14:59:25.886Z,10.94
2022-12-31T15:02:27.947Z,10.91
2022-12-31T15:05:14.179Z,10.89
2022-12-31T15:08:24.576Z,10.88
2022-12-31T15:11:39.238Z,10.88
2022-12-31T15:14:41.438Z,10.90
2022-12-31T15:17:30.067Z,10.89
2022-12-31T15:20:46.601Z,10.86
2022-12-31T15:23:23.300Z,10.83
2022-12-31T15:25:56.952Z,10.80
2022-12-31T15:28:33.999Z,10.76
2022-12-31T15:31:09.972Z,10.72
2022-12-31T15:33:53.705Z,10.68
2022-12-31T15:36:27.784Z,10.65
2022-12-31T15:39:25.346Z,10.62
2022-12-31T15:42:54.998Z,10.58
2022-12-31T15:45:31.222Z,10.53
2022-12-31T15:48:05.507Z,10.52
2022-12-31T15:50:38.817Z,10.49
2022-12-31T15:53:07.879Z,10.48
2022-12-31T15:55:42.714Z,10.48
2022-12-31T15:58:15.447Z,10.50
2022-12-31T16:00:57.085Z,10.55
2022-12-31T16:03:29.005Z,10.60
2022-12-31T16:06:00.882Z,10.67
2022-12-31T16:08:31.093Z,10.75
2022-12-31T16:11:00.333Z,10.77
2022-12-31T16:13:30.454Z,10.80
2022-12-31T16:16:02.763Z,10.83
2022-12-31T16:18:39.154Z,10.86
2022-12-31T16:21:24.339Z,10.91
2022-12-31T16:23:54.408Z,10.96
2022-12-31T16:26:25.301Z,11.08
2022-12-31T16:28:59.356Z,11.20
2022-12-31T16:31:30.204Z,11.27
2022-12-31T16:34:07.605Z,11.33
2022-12-31T16:36:36.196Z,11.38
2022-12-31T16:39:24.315Z,11.43
2022-12-31T16:42:06.357Z,11.47
2022-12-31T16:44:35.264Z,11.51
2022-12-31T16:47:08.501Z,11.53
2022-12-31T16:49:39.702Z,11.54
2022-12-31T16:52:24.800Z,11.53
2022-12-31T16:54:54.744Z,11.52
2022-12-31T16:57:26.183Z,11.53
2022-12-31T16:59:59.145Z,11.54
2022-12-31T17:02:34.260Z,11.57
2022-12-31T17:05:06.537Z,11.62
2022-12-31T17:07:39.628Z,11.64
2022-12-31T17:10:19.878Z,11.66
2022-12-31T17:15:52.272Z,11.75
2022-12-31T17:18:24.050Z,11.80
2022-12-31T17:20:54.692Z,11.84
2022-12-31T17:23:28.678Z,11.85
2022-12-31T17:26:08.734Z,11.84
2022-12-31T17:28:45.385Z,11.81
2022-12-31T17:31:31.155Z,11.77
2022-12-31T17:34:30.978Z,11.75
2022-12-31T17:37:02.796Z,11.71
2022-12-31T17:39:44.208Z,11.68
2022-12-31T17:42:14.912Z,11.67
2022-12-31T17:44:44.264Z,11.68
2022-12-31T17:47:13.694Z,11.70
2022-12-31T17:49:45.533Z,11.71
2022-12-31T17:52:15.656Z,11.73
2022-12-31T17:54:44.407Z,11.75
2022-12-31T17:57:24.408Z,11.77
2022-12-31T17:59:53.498Z,11.77
2022-12-31T18:02:22.192Z,11.78
2022-12-31T18:04:52.401Z,11.78
2022-12-31T18:07:21.214Z,11.79
2022-12-31T18:09:50.040Z,11.79
2022-12-31T18:12:19.543Z,11.80
2022-12-31T18:14:48.203Z,11.80
2022-12-31T18:17:17.226Z,11.79
2022-12-31T18:20:06.163Z,11.77
2022-12-31T18:22:44.677Z,11.74
2022-12-31T18:25:17.521Z,11.68
2022-12-31T18:27:55.284Z,11.60
2022-12-31T18:30:25.133Z,11.54
2022-12-31T18:32:57.742Z,11.48
2022-12-31T18:36:06.608Z,11.43
2022-12-31T18:38:17.676Z,11.38
2022-12-31T18:40:53.417Z,11.34
2022-12-31T18:43:22.887Z,11.31
2022-12-31T18:45:53.182Z,11.29
2022-12-31T18:48:25.487Z,11.27
2022-12-31T18:50:55.666Z,11.27
2022-12-31T18:53:24.956Z,11.28
2022-12-31T18:55:57.813Z,11.29
2022-12-31T18:58:27.015Z,11.28
2022-12-31T19:00:55.896Z,11.28
2022-12-31T19:03:35.570Z,11.29
2022-12-31T19:06:08.808Z,11.30
2022-12-31T19:08:37.757Z,11.31
2022-12-31T19:11:16.181Z,11.36
2022-12-31T19:13:45.112Z,11.40
2022-12-31T19:16:22.052Z,11.46
2022-12-31T19:18:53.031Z,11.51
2022-12-31T19:21:32.726Z,11.55
2022-12-31T19:24:01.527Z,11.56
2022-12-31T19:26:30.334Z,11.54
2022-12-31T19:29:02.264Z,11.49
2022-12-31T19:31:51.433Z,11.41
2022-12-31T19:34:40.563Z,11.34
2022-12-31T19:37:14.513Z,11.29
2022-12-31T19:39:52.822Z,11.25
2022-12-31T19:42:21.875Z,11.20
2022-12-31T19:44:53.714Z,11.13
2022-12-31T19:47:33.814Z,11.05
2022-12-31T19:50:02.701Z,10.98
2022-12-31T19:52:34.151Z,10.91
2022-12-31T19:55:15.606Z,10.84
2022-12-31T19:57:44.816Z,10.79
2022-12-31T20:00:16.706Z,10.74
2022-12-31T20:02:57.286Z,10.70
2022-12-31T20:05:28.407Z,10.69
2022-12-31T20:07:57.327Z,10.66
2022-12-31T20:10:28.327Z,10.66
2022-12-31T20:12:56.906Z,10.65
2022-12-31T20:15:33.484Z,10.63
2022-12-31T20:18:05.185Z,10.62
2022-12-31T20:20:33.948Z,10.61
2022-12-31T20:23:02.678Z,10.61
2022-12-31T20:25:31.332Z,10.60
2022-12-31T20:28:02.718Z,10.61
2022-12-31T20:30:31.487Z,10.62
2022-12-31T20:33:00.387Z,10.63
2022-12-31T20:35:30.944Z,10.64
2022-12-31T20:38:01.818Z,10.66
2022-12-31T20:40:32.012Z,10.67
2022-12-31T20:43:01.076Z,10.67
2022-12-31T20:45:30.308Z,10.68
2022-12-31T20:48:03.255Z,10.70
2022-12-31T20:50:32.104Z,10.71
2022-12-31T20:53:01.611Z,10.71
2022-12-31T20:55:31.717Z,10.71
2022-12-31T20:58:03.563Z,10.70
2022-12-31T21:00:35.862Z,10.69
2022-12-31T21:03:18.656Z,10.67
2022-12-31T21:05:55.980Z,10.66
2022-12-31T21:08:29.657Z,10.65
2022-12-31T21:11:02.295Z,10.63
2022-12-31T21:13:56.965Z,10.63
2022-12-31T21:16:26.168Z,10.63
2022-12-31T21:18:55.825Z,10.62
2022-12-31T21:21:44.754Z,10.61
2022-12-31T21:24:17.484Z,10.60
2022-12-31T21:26:49.515Z,10.59
2022-12-31T21:29:34.491Z,10.57
2022-12-31T21:32:07.619Z,10.56
2022-12-31T21:34:36.395Z,10.56
2022-12-31T21:37:05.918Z,10.57
2022-12-31T21:39:44.360Z,10.59
2022-12-31T21:42:13.205Z,10.61
2022-12-31T21:44:41.947Z,10.64
2022-12-31T21:47:39.770Z,10.67
2022-12-31T21:50:15.046Z,10.70
2022-12-31T21:52:44.970Z,10.72
2022-12-31T21:55:32.969Z,10.74
2022-12-31T22:01:09.059Z,10.76
2022-12-31T22:03:38.111Z,10.78
2022-12-31T22:06:09.885Z,10.78
2022-12-31T22:08:42.793Z,10.79
2022-12-31T22:11:13.494Z,10.79
2022-12-31T22:13:43.645Z,10.77
2022-12-31T22:16:21.496Z,10.76
2022-12-31T22:18:50.612Z,10.73
2022-12-31T22:21:23.107Z,10.69
2022-12-31T22:23:53.647Z,10.66
2022-12-31T22:26:25.911Z,10.63
2022-12-31T22:28:58.396Z,10.61
2022-12-31T22:31:29.719Z,10.61
2022-12-31T22:33:59.248Z,10.61
2022-12-31T22:36:28.005Z,10.63
2022-12-31T22:38:57.785Z,10.64
2022-12-31T22:41:27.394Z,10.66
2022-12-31T22:44:04.154Z,10.69
2022-12-31T22:46:34.828Z,10.72
2022-12-31T22:49:04.842Z,10.73
2022-12-31T22:51:56.758Z,10.74
2022-12-31T22:54:24.705Z,10.76
2022-12-31T22:56:53.444Z,10.79
2022-12-31T22:59:23.238Z,10.80
2022-12-31T23:01:51.926Z,10.82
2022-12-31T23:04:24.035Z,10.83
2022-12-31T23:06:52.857Z,10.85
2022-12-31T23:09:42.941Z,10.86
2022-12-31T23:12:11.787Z,10.87
2022-12-31T23:14:58.621Z,10.87
2022-12-31T23:17:46.477Z,10.88
2022-12-31T23:20:40.191Z,10.89
2022-12-31T23:23:13.655Z,10.92
2022-12-31T23:25:44.559Z,10.92
2022-12-31T23:28:19.113Z,10.93
2022-12-31T23:30:51.643Z,10.94
2022-12-31T23:33:23.815Z,10.95
2022-12-31T23:36:03.390Z,10.96
2022-12-31T23:38:32.033Z,10.96
2022-12-31T23:41:00.842Z,10.95
2022-12-31T23:43:29.714Z,10.93
2022-12-31T23:45:58.285Z,10.90
2022-12-31T23:48:27.102Z,10.88
2022-12-31T23:50:55.688Z,10.85
2022-12-31T23:53:26.934Z,10.83
2022-12-31T23:55:55.850Z,10.80
2022-12-31T23:58:24.972Z,10.79
